Time;durP1;ratioP1;P1;durP2;ratioP2;P2;SDS_P1;SDS_P2;PMS_P1;PMS_P2;Temp;Humidity;BMP_temperature;BMP_pressure;BME280_temperature;BME280_humidity;BME280_pressure;Samples;Min_cycle;Max_cycle;Signal;HPM_P1;HPM_P2
2021/05/08 00:01:06;;;;;;;14.45;6.60;;;8.60;56.90;;;;;;5044182;28;20269;-61
2021/05/08 00:03:34;;;;;;;20.45;6.82;;;8.60;56.90;;;;;;5033454;28;20089;-62
2021/05/08 00:06:01;;;;;;;12.43;6.10;;;8.60;57.00;;;;;;5044827;28;20048;-62
2021/05/08 00:08:27;;;;;;;24.45;6.22;;;8.60;57.10;;;;;;5042752;28;20036;-61
2021/05/08 00:10:53;;;;;;;13.73;5.75;;;8.60;57.10;;;;;;5022024;28;20642;-62
2021/05/08 00:13:21;;;;;;;20.15;6.35;;;8.50;57.10;;;;;;5026572;28;20040;-62
2021/05/08 00:15:49;;;;;;;11.07;5.65;;;8.50;57.20;;;;;;5035134;28;20159;-62
2021/05/08 00:18:14;;;;;;;14.32;6.20;;;8.50;57.20;;;;;;5040408;28;20341;-62
2021/05/08 00:20:40;;;;;;;11.15;5.57;;;8.50;57.20;;;;;;5040501;28;20037;-62
2021/05/08 00:23:08;;;;;;;15.43;6.07;;;8.40;57.20;;;;;;5043680;28;20106;-62
2021/05/08 00:25:36;;;;;;;18.10;6.72;;;8.40;57.20;;;;;;5041099;28;20066;-62
2021/05/08 00:28:01;;;;;;;15.13;6.28;;;8.40;57.30;;;;;;5041072;28;20150;-61
2021/05/08 00:30:27;;;;;;;19.38;6.68;;;8.30;57.30;;;;;;5047760;28;20095;-61
2021/05/08 00:32:55;;;;;;;17.17;6.25;;;8.30;57.30;;;;;;5020514;28;20338;-62
2021/05/08 00:35:22;;;;;;;20.73;6.47;;;8.30;57.40;;;;;;5045155;28;20051;-62
2021/05/08 00:37:50;;;;;;;16.88;7.38;;;8.30;57.40;;;;;;5027248;28;20569;-62
2021/05/08 00:40:18;;;;;;;16.33;6.97;;;8.30;57.60;;;;;;5037198;28;20048;-62
2021/05/08 00:42:44;;;;;;;17.00;7.22;;;8.30;57.80;;;;;;5036840;28;20515;-62
2021/05/08 00:45:10;;;;;;;24.15;7.22;;;8.30;57.80;;;;;;5038466;28;20249;-62
2021/05/08 00:47:48;;;;;;;14.25;7.30;;;8.30;57.80;;;;;;5040150;28;20419;-61
2021/05/08 00:50:19;;;;;;;24.60;8.30;;;8.30;57.80;;;;;;5023645;28;20036;-62
2021/05/08 00:52:47;;;;;;;22.08;8.38;;;8.30;57.90;;;;;;5029724;28;20114;-62
2021/05/08 00:55:13;;;;;;;22.08;8.73;;;8.30;58.00;;;;;;5033238;28;20040;-62
2021/05/08 00:57:39;;;;;;;22.13;8.82;;;8.30;58.10;;;;;;5042672;28;20597;-62
2021/05/08 01:00:07;;;;;;;21.77;8.57;;;8.30;58.10;;;;;;5023317;28;20033;-62
2021/05/08 01:02:33;;;;;;;23.00;8.20;;;8.30;58.10;;;;;;5041381;28;20658;-62
2021/05/08 01:04:59;;;;;;;14.40;8.23;;;8.30;58.00;;;;;;5039672;28;20059;-62
2021/05/08 01:07:27;;;;;;;18.27;8.63;;;8.30;58.00;;;;;;5043229;28;20097;-62
2021/05/08 01:09:53;;;;;;;26.15;8.70;;;8.30;58.00;;;;;;5045920;28;20032;-62
2021/05/08 01:12:19;;;;;;;15.77;8.88;;;8.30;58.10;;;;;;5019950;28;20044;-61
2021/05/08 01:14:45;;;;;;;15.02;8.10;;;8.30;58.10;;;;;;5041240;28;20073;-62
2021/05/08 01:17:10;;;;;;;17.77;7.60;;;8.20;58.10;;;;;;5038716;28;20039;-62
2021/05/08 01:19:36;;;;;;;16.00;8.20;;;8.20;58.10;;;;;;5041992;28;20024;-62
2021/05/08 01:22:04;;;;;;;22.92;8.48;;;8.20;58.00;;;;;;5026156;28;20509;-61
2021/05/08 01:24:30;;;;;;;15.18;8.52;;;8.20;58.00;;;;;;5037810;28;20229;-62
2021/05/08 01:26:57;;;;;;;22.80;8.82;;;8.10;58.10;;;;;;5047140;28;20517;-63
2021/05/08 01:29:26;;;;;;;15.80;7.90;;;8.10;58.20;;;;;;5041515;28;20038;-62
2021/05/08 01:31:51;;;;;;;17.38;8.52;;;8.10;58.20;;;;;;5028922;28;20050;-62
2021/05/08 01:34:17;;;;;;;18.95;8.80;;;8.10;58.20;;;;;;5022072;28;20067;-62
2021/05/08 01:36:47;;;;;;;22.13;9.10;;;8.10;58.40;;;;;;5039969;28;21980;-63
2021/05/08 01:39:15;;;;;;;19.98;8.40;;;8.00;58.40;;;;;;5043885;28;20040;-62
2021/05/08 01:41:43;;;;;;;19.33;8.10;;;8.00;58.40;;;;;;5031905;28;20047;-62
2021/05/08 01:44:11;;;;;;;18.40;8.65;;;8.10;58.50;;;;;;5042511;28;20095;-62
2021/05/08 01:46:39;;;;;;;21.50;8.13;;;8.10;58.60;;;;;;5043360;28;21192;-62
2021/05/08 01:49:05;;;;;;;20.73;8.45;;;8.10;58.60;;;;;;5040972;28;20128;-62
2021/05/08 01:51:33;;;;;;;20.40;8.98;;;8.10;58.70;;;;;;5043205;28;20039;-61
2021/05/08 01:54:03;;;;;;;14.60;8.43;;;8.10;58.70;;;;;;5045416;28;20597;-62
2021/05/08 01:56:29;;;;;;;19.80;9.00;;;8.10;58.70;;;;;;5044957;28;20101;-62
2021/05/08 01:58:55;;;;;;;23.75;8.68;;;8.10;58.70;;;;;;5048926;28;20036;-62
2021/05/08 02:01:23;;;;;;;24.15;9.55;;;8.00;58.60;;;;;;5017037;28;20055;-62
2021/05/08 02:03:49;;;;;;;24.58;9.43;;;8.00;58.80;;;;;;4998157;28;20033;-62
2021/05/08 02:06:15;;;;;;;15.80;8.68;;;8.10;59.00;;;;;;5035660;28;20067;-62
2021/05/08 02:08:41;;;;;;;20.23;9.35;;;8.10;59.00;;;;;;5039254;28;22334;-62
2021/05/08 02:11:09;;;;;;;15.43;8.52;;;8.10;59.00;;;;;;5038941;28;20044;-62
2021/05/08 02:13:39;;;;;;;21.73;9.30;;;8.10;59.00;;;;;;5036789;28;20040;-62
2021/05/08 02:16:05;;;;;;;14.13;8.52;;;8.10;59.00;;;;;;5042221;28;20043;-62
2021/05/08 02:18:33;;;;;;;19.23;8.10;;;8.10;58.80;;;;;;5040518;28;20465;-62
2021/05/08 02:20:58;;;;;;;19.45;9.68;;;8.10;58.70;;;;;;5016466;28;22098;-61
2021/05/08 02:23:24;;;;;;;21.85;9.60;;;8.00;58.60;;;;;;5022699;28;20068;-62
2021/05/08 02:25:49;;;;;;;17.20;8.95;;;8.00;58.60;;;;;;5035972;28;20063;-62
2021/05/08 02:28:15;;;;;;;28.38;9.77;;;8.00;58.70;;;;;;5043944;28;20040;-62
2021/05/08 02:30:42;;;;;;;23.50;9.10;;;8.00;58.80;;;;;;5043503;28;23955;-62
2021/05/08 02:33:10;;;;;;;23.40;9.30;;;8.00;58.90;;;;;;5043112;28;21368;-61
2021/05/08 02:35:37;;;;;;;21.45;9.63;;;7.90;58.80;;;;;;5048265;28;20032;-61
2021/05/08 02:38:04;;;;;;;15.25;8.73;;;7.90;58.90;;;;;;5042419;28;20155;-62
2021/05/08 02:40:33;;;;;;;20.67;8.95;;;7.90;59.00;;;;;;5029902;28;20529;-61
2021/05/08 02:43:01;;;;;;;18.85;9.48;;;7.90;59.00;;;;;;5037732;28;20127;-62
2021/05/08 02:45:27;;;;;;;14.82;8.85;;;7.90;59.00;;;;;;5044421;28;20034;-61
2021/05/08 02:47:55;;;;;;;18.15;9.32;;;7.90;59.00;;;;;;5045211;28;20402;-62
2021/05/08 02:50:25;;;;;;;18.60;9.35;;;7.80;58.90;;;;;;5045812;28;20610;-62
2021/05/08 02:52:51;;;;;;;17.20;8.60;;;7.80;58.90;;;;;;5041796;28;20551;-62
2021/05/08 02:55:21;;;;;;;20.13;9.13;;;7.80;58.90;;;;;;5023474;28;20139;-63
2021/05/08 02:57:51;;;;;;;20.42;9.10;;;7.70;58.90;;;;;;5041137;28;20031;-62
2021/05/08 03:00:22;;;;;;;19.35;9.38;;;7.70;59.00;;;;;;5040567;28;20055;-62
2021/05/08 03:02:48;;;;;;;23.40;9.18;;;7.70;59.10;;;;;;5040502;28;20525;-62
2021/05/08 03:05:14;;;;;;;22.95;9.63;;;7.70;59.10;;;;;;5035943;28;20058;-62
2021/05/08 03:07:39;;;;;;;20.23;9.35;;;7.70;59.20;;;;;;5034381;28;20168;-62
2021/05/08 03:10:07;;;;;;;17.98;8.95;;;7.80;59.40;;;;;;5029914;28;20040;-62
2021/05/08 03:12:33;;;;;;;21.85;8.98;;;7.70;59.40;;;;;;5034453;28;20179;-62
2021/05/08 03:14:58;;;;;;;13.32;8.23;;;7.70;59.30;;;;;;5041422;28;20036;-63
2021/05/08 03:17:28;;;;;;;19.52;9.38;;;7.70;59.20;;;;;;5039453;28;20414;-61
2021/05/08 03:19:56;;;;;;;23.10;9.40;;;7.70;59.20;;;;;;5060268;28;20131;-62
2021/05/08 03:22:22;;;;;;;19.40;9.40;;;7.70;59.30;;;;;;5047578;28;20108;-62
2021/05/08 03:24:50;;;;;;;24.20;8.93;;;7.70;59.30;;;;;;5064932;28;20048;-62
2021/05/08 03:27:16;;;;;;;21.02;9.00;;;7.60;59.30;;;;;;5043162;28;20393;-62
2021/05/08 03:29:44;;;;;;;16.08;9.00;;;7.70;59.30;;;;;;5043721;28;20517;-62
2021/05/08 03:32:12;;;;;;;18.40;9.68;;;7.60;59.20;;;;;;5064143;28;20513;-62
2021/05/08 03:34:38;;;;;;;19.02;8.48;;;7.60;59.20;;;;;;5066804;28;20050;-62
2021/05/08 03:37:03;;;;;;;16.70;9.23;;;7.60;59.30;;;;;;5066902;28;20041;-62
2021/05/08 03:39:31;;;;;;;19.00;8.73;;;7.60;59.20;;;;;;5053660;28;20554;-62
2021/05/08 03:42:01;;;;;;;16.17;8.60;;;7.50;59.20;;;;;;5064521;28;20068;-62
2021/05/08 03:44:27;;;;;;;25.10;8.95;;;7.50;59.20;;;;;;5045620;28;20222;-62
2021/05/08 03:46:53;;;;;;;25.42;9.43;;;7.50;59.40;;;;;;5064401;28;20056;-62
2021/05/08 03:49:21;;;;;;;17.90;8.80;;;7.50;59.50;;;;;;5058180;28;20411;-63
2021/05/08 03:51:49;;;;;;;24.35;9.02;;;7.50;59.60;;;;;;5059943;28;20856;-62
2021/05/08 03:54:14;;;;;;;20.75;9.63;;;7.50;59.60;;;;;;5061139;28;20109;-62
2021/05/08 03:56:42;;;;;;;15.65;8.10;;;7.50;59.60;;;;;;5065860;28;20122;-62
2021/05/08 03:59:08;;;;;;;12.90;7.93;;;7.50;59.40;;;;;;5058194;28;20078;-62
2021/05/08 04:01:33;;;;;;;19.70;8.95;;;7.50;59.40;;;;;;5064398;28;20033;-62
2021/05/08 04:03:59;;;;;;;15.55;8.40;;;7.40;59.30;;;;;;5036725;28;20044;-62
2021/05/08 04:06:29;;;;;;;12.40;7.88;;;7.40;59.40;;;;;;5063296;28;21333;-62
2021/05/08 04:08:54;;;;;;;19.95;8.90;;;7.40;59.40;;;;;;5057577;28;20179;-62
2021/05/08 04:11:20;;;;;;;21.42;9.60;;;7.40;59.60;;;;;;5056977;28;20038;-62
2021/05/08 04:13:48;;;;;;;15.23;8.95;;;7.40;59.70;;;;;;5065514;28;20040;-62
2021/05/08 04:16:14;;;;;;;16.30;8.25;;;7.40;59.70;;;;;;5055531;28;20036;-61
2021/05/08 04:18:39;;;;;;;15.25;8.27;;;7.40;59.60;;;;;;5059375;28;20115;-62
2021/05/08 04:21:05;;;;;;;15.20;8.32;;;7.40;59.60;;;;;;5046597;28;20036;-62
2021/05/08 04:23:30;;;;;;;15.95;8.57;;;7.40;59.50;;;;;;5059700;28;20812;-62
2021/05/08 04:25:56;;;;;;;16.33;9.82;;;7.40;59.50;;;;;;5056404;28;20036;-62
2021/05/08 04:28:21;;;;;;;13.57;8.73;;;7.40;60.20;;;;;;5041940;28;20122;-61
2021/05/08 04:30:49;;;;;;;13.82;8.18;;;7.40;59.70;;;;;;5051204;28;20040;-61
2021/05/08 04:33:17;;;;;;;20.08;8.63;;;7.40;59.70;;;;;;5056965;28;20051;-62
2021/05/08 04:35:42;;;;;;;15.80;9.25;;;7.40;59.70;;;;;;5068207;28;20036;-62
2021/05/08 04:38:13;;;;;;;16.30;8.98;;;7.40;59.80;;;;;;5061221;28;20032;-62
2021/05/08 04:40:38;;;;;;;16.75;9.13;;;7.40;59.90;;;;;;5059454;28;20546;-62
2021/05/08 04:43:04;;;;;;;16.73;9.23;;;7.40;59.90;;;;;;5051349;28;20033;-62
2021/05/08 04:45:29;;;;;;;20.02;9.20;;;7.50;60.00;;;;;;5065016;28;20048;-62
2021/05/08 04:47:59;;;;;;;18.70;9.65;;;7.50;60.10;;;;;;5044816;28;20060;-62
2021/05/08 04:50:30;;;;;;;25.20;10.52;;;7.60;60.20;;;;;;5051176;28;20044;-62
2021/05/08 04:52:56;;;;;;;19.48;10.60;;;7.70;60.40;;;;;;5059722;28;20117;-62
2021/05/08 04:55:21;;;;;;;16.30;10.00;;;7.80;60.50;;;;;;5066778;28;20428;-62
2021/05/08 04:57:49;;;;;;;19.50;10.35;;;7.90;60.50;;;;;;5064498;28;20047;-62
2021/05/08 05:00:18;;;;;;;20.92;10.40;;;8.00;60.30;;;;;;5047846;28;20515;-63
2021/05/08 05:02:44;;;;;;;21.50;11.95;;;8.10;60.30;;;;;;5061073;28;20082;-62
2021/05/08 05:05:11;;;;;;;23.02;11.45;;;8.20;60.50;;;;;;5063910;28;20047;-62
2021/05/08 05:07:47;;;;;;;22.85;12.13;;;8.30;60.60;;;;;;5061727;28;20631;-62
2021/05/08 05:10:15;;;;;;;21.42;11.98;;;8.40;60.50;;;;;;5053698;28;20196;-62
2021/05/08 05:12:46;;;;;;;22.05;11.13;;;8.50;60.40;;;;;;5055497;28;20116;-62
2021/05/08 05:15:19;;;;;;;25.35;11.80;;;8.60;60.50;;;;;;5059208;28;20043;-61
2021/05/08 05:17:47;;;;;;;26.45;13.38;;;8.60;60.60;;;;;;5064310;28;20484;-62
2021/05/08 05:20:13;;;;;;;22.95;13.23;;;8.80;61.30;;;;;;5069400;28;20085;-62
2021/05/08 05:22:39;;;;;;;23.08;12.65;;;9.10;61.40;;;;;;5080042;28;20169;-62
2021/05/08 05:25:06;;;;;;;23.58;14.32;;;9.40;61.40;;;;;;5078577;28;20040;-62
2021/05/08 05:27:35;;;;;;;25.52;15.55;;;9.70;61.50;;;;;;5078616;28;20521;-62
2021/05/08 05:30:01;;;;;;;27.10;14.63;;;10.00;61.40;;;;;;5066699;28;20442;-62
2021/05/08 05:32:29;;;;;;;22.52;14.30;;;10.30;61.30;;;;;;5073187;28;20151;-62
2021/05/08 05:34:54;;;;;;;18.20;12.63;;;10.60;61.10;;;;;;5067262;28;20089;-63
2021/05/08 05:37:24;;;;;;;25.67;14.98;;;10.80;61.00;;;;;;5067830;28;20036;-62
2021/05/08 05:39:50;;;;;;;23.25;13.35;;;11.10;61.40;;;;;;5064347;28;20429;-62
2021/05/08 05:42:20;;;;;;;15.80;11.52;;;11.60;62.40;;;;;;5068294;28;20028;-63
2021/05/08 05:44:48;;;;;;;13.60;9.07;;;12.20;61.70;;;;;;5047830;28;20102;-63
2021/05/08 05:47:22;;;;;;;11.55;7.05;;;13.00;60.30;;;;;;5063316;28;20493;-62
2021/05/08 05:49:56;;;;;;;8.77;6.65;;;13.70;59.30;;;;;;5059526;28;20039;-63
2021/05/08 05:52:24;;;;;;;11.20;5.40;;;;;;;;;;5057041;28;20093;-63
2021/05/08 05:54:51;;;;;;;9.13;5.57;;;;;;;;;;5057280;28;20041;-63
2021/05/08 05:57:19;;;;;;;8.18;5.32;;;;;;;;;;5056642;28;20119;-63
2021/05/08 05:59:45;;;;;;;7.20;5.15;;;;;;;;;;5056361;28;20056;-63
2021/05/08 06:02:14;;;;;;;11.73;5.18;;;14.90;57.30;;;;;;5054228;28;20564;-63
2021/05/08 06:04:40;;;;;;;10.95;5.13;;;20.70;44.70;;;;;;5049273;28;20042;-63
2021/05/08 06:07:08;;;;;;;6.68;4.63;;;21.50;42.60;;;;;;5057760;28;20028;-63
2021/05/08 06:09:33;;;;;;;10.68;5.00;;;22.30;40.60;;;;;;5051033;28;20036;-63
2021/05/08 06:12:00;;;;;;;10.05;4.10;;;23.10;38.40;;;;;;5052821;28;20032;-63
2021/05/08 06:14:27;;;;;;;9.68;4.07;;;23.90;36.90;;;;;;5044266;28;20335;-63
2021/05/08 06:16:55;;;;;;;7.32;4.10;;;24.50;35.00;;;;;;5047786;28;20786;-63
2021/05/08 06:19:21;;;;;;;9.80;4.13;;;24.80;33.60;;;;;;5049226;28;20410;-63
2021/05/08 06:21:47;;;;;;;11.30;5.13;;;24.20;32.60;;;;;;5052142;28;20052;-63
2021/05/08 06:24:13;;;;;;;10.27;4.72;;;22.90;33.50;;;;;;5052998;28;20405;-62
2021/05/08 06:26:43;;;;;;;6.00;4.65;;;21.70;34.80;;;;;;5046305;28;20034;-62
2021/05/08 06:29:11;;;;;;;8.27;5.03;;;20.50;36.20;;;;;;5055414;28;20036;-62
2021/05/08 06:31:39;;;;;;;9.77;4.82;;;19.60;37.90;;;;;;5052912;28;20421;-62
2021/05/08 06:34:09;;;;;;;8.95;4.55;;;18.80;38.80;;;;;;5049575;28;20120;-64
2021/05/08 06:36:37;;;;;;;9.25;4.72;;;18.10;39.40;;;;;;5051487;28;20044;-62
2021/05/08 06:39:03;;;;;;;7.47;4.80;;;;;;;;;;5054326;28;20923;-63
2021/05/08 06:41:29;;;;;;;14.77;4.63;;;;;;;;;;5052542;28;20044;-62
2021/05/08 06:43:55;;;;;;;7.05;4.88;;;;;;;;;;5062478;28;20097;-63
2021/05/08 06:46:21;;;;;;;10.43;4.45;;;;;;;;;;5043638;28;20039;-62
2021/05/08 06:48:49;;;;;;;10.65;5.07;;;17.50;41.10;;;;;;5066371;28;20037;-63
2021/05/08 06:51:14;;;;;;;9.65;4.88;;;16.20;44.40;;;;;;5054697;28;20101;-62
2021/05/08 06:53:41;;;;;;;7.90;4.55;;;15.90;44.50;;;;;;5068953;28;20036;-63
2021/05/08 06:56:09;;;;;;;9.55;4.38;;;15.70;45.20;;;;;;5075890;28;20051;-63
2021/05/08 06:58:34;;;;;;;10.95;4.82;;;15.70;45.30;;;;;;5078107;28;20516;-63
2021/05/08 07:01:00;;;;;;;7.63;4.93;;;15.60;45.90;;;;;;5070724;28;20454;-63
2021/05/08 07:03:28;;;;;;;12.02;4.95;;;15.70;46.50;;;;;;5072999;28;20115;-63
2021/05/08 07:05:54;;;;;;;8.88;4.47;;;16.20;46.60;;;;;;5067782;28;20334;-63
2021/05/08 07:08:20;;;;;;;6.00;3.85;;;17.20;45.90;;;;;;5072836;28;20512;-63
2021/05/08 07:10:47;;;;;;;9.18;3.90;;;18.70;43.90;;;;;;5076767;28;20059;-63
2021/05/08 07:13:18;;;;;;;7.57;4.05;;;20.40;41.10;;;;;;5066543;28;20105;-64
2021/05/08 07:15:44;;;;;;;8.40;4.05;;;;;;;;;;5069048;28;20137;-63
2021/05/08 07:18:12;;;;;;;5.97;3.50;;;21.90;38.30;;;;;;5073096;28;20520;-63
2021/05/08 07:20:41;;;;;;;4.82;3.42;;;24.10;33.60;;;;;;5076933;28;20059;-63
2021/05/08 07:23:07;;;;;;;8.55;3.95;;;24.70;31.90;;;;;;5072403;28;20047;-63
2021/05/08 07:25:36;;;;;;;10.40;3.65;;;25.30;30.90;;;;;;5069931;28;20729;-63
2021/05/08 07:28:11;;;;;;;4.68;3.25;;;25.90;30.00;;;;;;5078813;28;20066;-63
2021/05/08 07:30:37;;;;;;;7.47;3.63;;;;;;;;;;5078285;28;20114;-63
2021/05/08 07:33:03;;;;;;;5.63;3.55;;;;;;;;;;5062973;28;20056;-63
2021/05/08 07:35:29;;;;;;;4.53;3.22;;;;;;;;;;5073590;28;20272;-63
2021/05/08 07:38:00;;;;;;;4.85;3.40;;;;;;;;;;5057058;28;20397;-64
2021/05/08 07:40:26;;;;;;;8.70;4.20;;;;;;;;;;5074118;28;20041;-64
2021/05/08 07:42:52;;;;;;;8.80;3.55;;;;;;;;;;5071091;28;20036;-63
2021/05/08 07:45:18;;;;;;;7.07;3.25;;;;;;;;;;5071677;28;20230;-62
2021/05/08 07:47:46;;;;;;;4.25;3.25;;;;;;;;;;5068831;28;20043;-63
2021/05/08 07:50:11;;;;;;;5.60;3.05;;;26.50;29.10;;;;;;5075576;28;20061;-63
2021/05/08 07:52:37;;;;;;;10.77;3.55;;;26.90;26.70;;;;;;5072590;28;20037;-63
2021/05/08 07:55:04;;;;;;;4.68;3.03;;;;;;;;;;5065331;28;20040;-63
2021/05/08 07:57:32;;;;;;;4.22;3.00;;;;;;;;;;5073457;28;20429;-63
2021/05/08 07:59:58;;;;;;;8.07;3.70;;;;;;;;;;5056183;28;20040;-63
2021/05/08 08:02:26;;;;;;;5.10;3.47;;;;;;;;;;5059691;28;20534;-64
2021/05/08 08:04:52;;;;;;;6.20;3.05;;;27.10;26.30;;;;;;5058034;28;20032;-63
2021/05/08 08:07:20;;;;;;;7.18;3.35;;;30.30;23.60;;;;;;5063481;28;20042;-63
2021/05/08 08:09:45;;;;;;;4.82;2.78;;;30.70;23.70;;;;;;5069044;28;20543;-63
2021/05/08 08:12:11;;;;;;;6.03;3.38;;;31.00;23.20;;;;;;5072039;28;20036;-64
2021/05/08 08:14:37;;;;;;;6.78;3.08;;;31.30;22.60;;;;;;5065185;28;20032;-64
2021/05/08 08:17:05;;;;;;;4.65;2.63;;;31.20;22.50;;;;;;5060627;28;20167;-64
2021/05/08 08:19:31;;;;;;;5.25;2.92;;;31.00;23.00;;;;;;5064335;28;20300;-64
2021/05/08 08:21:59;;;;;;;6.43;3.10;;;30.80;22.70;;;;;;5075729;28;20036;-63
2021/05/08 08:24:27;;;;;;;5.50;2.88;;;30.60;22.10;;;;;;5078653;28;20060;-64
2021/05/08 08:26:53;;;;;;;9.05;3.33;;;30.20;22.20;;;;;;5070491;28;20040;-63
2021/05/08 08:29:22;;;;;;;7.07;3.45;;;29.60;22.50;;;;;;5075660;28;20040;-63
2021/05/08 08:31:47;;;;;;;5.47;3.40;;;28.80;23.10;;;;;;5072492;28;20119;-63
2021/05/08 08:34:13;;;;;;;8.40;3.45;;;28.20;23.70;;;;;;5056934;28;20126;-63
2021/05/08 08:36:39;;;;;;;5.57;3.65;;;28.30;24.50;;;;;;5073807;28;20036;-63
2021/05/08 08:39:07;;;;;;;6.55;3.40;;;28.60;23.80;;;;;;5080908;28;20027;-63
2021/05/08 08:41:37;;;;;;;6.82;3.60;;;29.00;23.30;;;;;;5076232;28;20033;-63
2021/05/08 08:44:10;;;;;;;7.03;3.40;;;29.10;23.50;;;;;;5078323;28;20101;-63
2021/05/08 08:46:42;;;;;;;5.18;2.90;;;29.30;23.50;;;;;;5058564;28;20113;-63
2021/05/08 08:49:13;;;;;;;7.03;3.45;;;29.50;22.80;;;;;;5078739;28;20048;-63
2021/05/08 08:51:39;;;;;;;6.85;3.50;;;29.70;22.50;;;;;;5062058;28;22170;-64
2021/05/08 08:54:05;;;;;;;7.53;3.30;;;29.90;22.70;;;;;;5073413;28;20042;-63
2021/05/08 08:56:39;;;;;;;5.68;3.22;;;30.10;22.20;;;;;;5062282;28;20390;-63
2021/05/08 08:59:13;;;;;;;8.48;3.47;;;30.40;22.20;;;;;;5077515;28;20584;-63
2021/05/08 09:01:40;;;;;;;7.07;3.53;;;30.70;21.30;;;;;;5079537;28;20032;-63
2021/05/08 09:04:08;;;;;;;7.30;3.38;;;30.60;21.10;;;;;;5075470;28;20043;-63
2021/05/08 09:06:40;;;;;;;5.50;3.33;;;30.50;21.20;;;;;;5072967;28;20527;-63
2021/05/08 09:09:08;;;;;;;6.72;3.33;;;30.40;21.30;;;;;;5078449;28;20125;-64
2021/05/08 09:11:34;;;;;;;7.88;3.28;;;30.50;22.00;;;;;;5056916;28;20024;-63
2021/05/08 09:14:19;;;;;;;8.10;3.33;;;30.80;21.10;;;;;;5076440;28;20040;-63
2021/05/08 09:17:16;;;;;;;5.72;2.90;;;31.20;21.60;;;;;;5077544;28;20044;-62
2021/05/08 09:20:03;;;;;;;6.85;3.50;;;31.60;21.90;;;;;;5053516;28;20074;-63
2021/05/08 09:22:33;;;;;;;11.57;3.50;;;31.50;21.00;;;;;;5077788;28;20085;-63
2021/05/08 09:25:14;;;;;;;6.03;3.10;;;30.80;21.20;;;;;;5077920;28;20056;-63
2021/05/08 09:27:49;;;;;;;6.45;3.38;;;30.00;21.90;;;;;;5071660;28;20039;-62
2021/05/08 09:30:28;;;;;;;5.35;3.63;;;29.00;22.50;;;;;;5078692;28;20047;-62
2021/05/08 09:33:00;;;;;;;5.60;3.53;;;28.00;22.80;;;;;;5067294;28;20054;-62
2021/05/08 09:35:34;;;;;;;7.35;4.20;;;27.70;22.90;;;;;;5073721;28;20501;-63
2021/05/08 09:38:11;;;;;;;7.45;4.00;;;28.00;23.30;;;;;;5069445;28;20094;-62
2021/05/08 09:40:38;;;;;;;11.65;3.88;;;;;;;;;;5066295;28;20562;-63
2021/05/08 09:43:09;;;;;;;10.52;3.95;;;;;;;;;;5064931;28;20100;-64
2021/05/08 09:45:37;;;;;;;7.85;4.18;;;;;;;;;;5072898;28;20115;-63
2021/05/08 09:48:16;;;;;;;6.20;3.95;;;;;;;;;;5073551;28;20046;-63
2021/05/08 09:50:44;;;;;;;9.45;3.70;;;28.80;23.20;;;;;;5073195;28;20040;-63
2021/05/08 09:53:23;;;;;;;5.90;3.65;;;29.90;21.80;;;;;;5073237;28;20036;-63
2021/05/08 09:55:49;;;;;;;4.97;3.88;;;;;;;;;;5074162;28;20040;-63
2021/05/08 09:58:20;;;;;;;7.32;4.18;;;;;;;;;;5073551;28;20069;-63
2021/05/08 10:00:47;;;;;;;6.50;4.40;;;29.90;21.50;;;;;;5076786;28;20042;-62
2021/05/08 10:03:19;;;;;;;9.05;4.32;;;29.70;21.30;;;;;;5068485;28;20033;-62
2021/05/08 10:06:00;;;;;;;5.50;4.07;;;29.90;21.40;;;;;;5073696;28;20039;-64
2021/05/08 10:08:25;;;;;;;5.82;3.97;;;30.20;21.00;;;;;;5068317;28;20086;-63
2021/05/08 10:10:51;;;;;;;6.53;3.58;;;30.40;20.70;;;;;;5078362;28;20045;-62
2021/05/08 10:13:19;;;;;;;8.48;4.15;;;30.10;20.60;;;;;;5076867;28;20040;-63
2021/05/08 10:15:45;;;;;;;7.63;4.05;;;29.90;21.50;;;;;;5071742;28;20040;-64
2021/05/08 10:18:12;;;;;;;6.07;3.90;;;30.20;21.10;;;;;;5078392;28;20417;-62
2021/05/08 10:20:39;;;;;;;5.50;3.65;;;30.50;20.40;;;;;;5074890;28;20047;-63
2021/05/08 10:23:13;;;;;;;7.90;4.13;;;30.60;20.70;;;;;;5067019;28;20421;-62
2021/05/08 10:25:41;;;;;;;6.90;3.75;;;30.90;20.80;;;;;;5076439;28;20557;-62
2021/05/08 10:28:09;;;;;;;6.30;4.15;;;30.90;19.90;;;;;;5067944;28;20036;-62
2021/05/08 10:30:43;;;;;;;8.43;3.67;;;30.80;19.20;;;;;;5067065;28;20040;-63
2021/05/08 10:33:13;;;;;;;8.40;3.88;;;30.80;19.90;;;;;;5049180;28;20032;-63
2021/05/08 10:35:44;;;;;;;7.95;4.15;;;30.40;19.70;;;;;;5074656;28;20390;-63
2021/05/08 10:38:35;;;;;;;7.45;3.55;;;30.10;19.40;;;;;;5070961;28;20630;-63
2021/05/08 10:41:04;;;;;;;6.15;4.82;;;29.60;19.80;;;;;;5061552;28;20040;-64
2021/05/08 10:43:51;;;;;;;9.02;4.85;;;28.80;19.90;;;;;;5068796;28;20808;-62
2021/05/08 10:46:20;;;;;;;6.88;4.00;;;28.00;20.30;;;;;;5070803;28;20036;-62
2021/05/08 10:49:07;;;;;;;7.82;4.93;;;;;;;;;;5071110;28;20067;-62
2021/05/08 10:52:05;;;;;;;6.70;4.65;;;27.50;20.70;;;;;;5065832;28;20039;-62
2021/05/08 10:54:42;;;;;;;7.50;4.65;;;;;;;;;;5054761;28;20036;-62
2021/05/08 10:57:18;;;;;;;7.18;5.22;;;;;;;;;;5074583;28;20047;-62
2021/05/08 11:00:07;;;;;;;10.45;5.18;;;;;;;;;;5080310;28;20541;-62
2021/05/08 11:02:45;;;;;;;9.75;4.97;;;;;;;;;;5080154;28;20109;-61
2021/05/08 11:05:29;;;;;;;10.73;5.60;;;;;;;;;;5062297;28;20098;-63
2021/05/08 11:07:55;;;;;;;9.05;5.45;;;;;;;;;;5067486;28;20067;-63
2021/05/08 11:10:33;;;;;;;9.45;4.88;;;;;;;;;;5068983;28;20057;-62
2021/05/08 11:13:15;;;;;;;9.20;5.43;;;;;;;;;;5064847;28;20075;-62
2021/05/08 11:15:56;;;;;;;9.88;5.07;;;;;;;;;;5061392;28;20047;-64
2021/05/08 11:18:35;;;;;;;14.20;5.35;;;;;;;;;;5068613;28;20645;-62
2021/05/08 11:21:02;;;;;;;6.63;4.90;;;;;;;;;;5063810;28;20043;-62
2021/05/08 11:23:47;;;;;;;8.23;5.35;;;;;;;;;;5068122;28;20424;-62
2021/05/08 11:26:34;;;;;;;9.07;5.15;;;;;;;;;;5069928;28;20032;-62
2021/05/08 11:29:00;;;;;;;8.95;4.88;;;;;;;;;;5069780;28;20134;-62
2021/05/08 11:31:40;;;;;;;8.00;4.68;;;;;;;;;;5059421;28;20679;-61
2021/05/08 11:34:10;;;;;;;6.97;4.43;;;;;;;;;;5062038;28;20086;-63
2021/05/08 11:37:03;;;;;;;9.15;4.90;;;;;;;;;;5066059;28;20063;-62
2021/05/08 11:39:45;;;;;;;5.82;4.72;;;;;;;;;;5069442;28;20064;-62
2021/05/08 11:42:16;;;;;;;11.13;4.55;;;26.50;21.90;;;;;;5079473;28;20457;-62
2021/05/08 11:44:46;;;;;;;6.38;4.50;;;;;;;;;;5083056;28;20846;-63
2021/05/08 11:47:30;;;;;;;8.95;4.82;;;25.30;24.10;;;;;;5078814;28;20551;-62
2021/05/08 11:50:01;;;;;;;5.43;4.43;;;25.20;24.50;;;;;;5067652;28;20048;-62
2021/05/08 11:52:48;;;;;;;7.38;5.10;;;25.20;25.40;;;;;;5073394;28;20024;-62
2021/05/08 11:55:17;;;;;;;7.53;4.50;;;25.20;25.60;;;;;;5079495;28;20047;-62
2021/05/08 11:57:58;;;;;;;7.22;4.55;;;25.40;25.50;;;;;;5076715;28;20036;-62
2021/05/08 12:00:25;;;;;;;8.73;4.93;;;;;;;;;;5072504;28;20043;-62
2021/05/08 12:02:51;;;;;;;5.75;4.38;;;;;;;;;;5070311;28;20162;-62
2021/05/08 12:05:23;;;;;;;9.40;4.32;;;;;;;;;;5064814;28;20039;-63
2021/05/08 12:07:49;;;;;;;9.43;4.97;;;;;;;;;;5070978;28;20046;-62
2021/05/08 12:10:19;;;;;;;8.38;4.97;;;25.50;25.20;;;;;;5073003;28;20171;-62
2021/05/08 12:12:46;;;;;;;7.65;4.55;;;24.80;25.10;;;;;;5071611;28;20045;-63
2021/05/08 12:15:16;;;;;;;10.32;4.78;;;24.60;25.10;;;;;;5071039;28;20060;-63
2021/05/08 12:17:42;;;;;;;10.02;4.97;;;24.40;25.60;;;;;;5080514;28;20040;-62
2021/05/08 12:20:08;;;;;;;8.45;4.70;;;24.30;25.80;;;;;;5070280;28;20036;-63
2021/05/08 12:22:35;;;;;;;7.88;5.40;;;24.20;25.90;;;;;;5074019;28;20093;-62
2021/05/08 12:25:02;;;;;;;9.75;5.50;;;24.00;25.50;;;;;;5073411;28;20536;-62
2021/05/08 12:27:30;;;;;;;7.38;5.00;;;23.80;25.80;;;;;;5076622;28;20047;-62
2021/05/08 12:29:57;;;;;;;9.45;5.15;;;23.60;26.20;;;;;;5075809;28;20471;-62
2021/05/08 12:32:23;;;;;;;10.07;6.35;;;23.40;25.80;;;;;;5068717;28;20422;-63
2021/05/08 12:34:53;;;;;;;8.40;6.03;;;23.10;25.90;;;;;;5060260;28;20489;-62
2021/05/08 12:37:19;;;;;;;10.65;5.47;;;22.90;26.10;;;;;;5081387;28;20078;-61
2021/05/08 12:39:49;;;;;;;9.40;5.30;;;22.80;26.20;;;;;;5051568;28;20065;-63
2021/05/08 12:42:15;;;;;;;11.48;5.00;;;22.80;26.60;;;;;;5074901;28;20044;-63
2021/05/08 12:44:46;;;;;;;14.50;5.90;;;22.70;27.30;;;;;;5070132;28;20043;-62
2021/05/08 12:47:19;;;;;;;9.43;5.65;;;22.80;27.70;;;;;;5064823;28;20035;-62
2021/05/08 12:50:12;;;;;;;10.48;6.25;;;22.90;27.10;;;;;;5069615;28;20524;-62
2021/05/08 12:52:42;;;;;;;9.43;5.55;;;22.90;26.30;;;;;;5048428;28;20069;-63
2021/05/08 12:55:30;;;;;;;10.30;5.28;;;22.80;26.90;;;;;;5062642;28;20040;-63
2021/05/08 12:58:13;;;;;;;10.30;4.80;;;22.80;27.40;;;;;;5059062;28;20062;-63
2021/05/08 13:00:51;;;;;;;10.57;5.47;;;22.80;28.10;;;;;;5061100;28;20156;-63
2021/05/08 13:03:40;;;;;;;9.43;5.13;;;22.90;27.60;;;;;;5065962;28;20177;-62
2021/05/08 13:06:25;;;;;;;8.32;5.57;;;22.80;27.40;;;;;;5071545;28;20031;-62
2021/05/08 13:08:53;;;;;;;9.90;5.65;;;22.60;26.30;;;;;;5067118;28;20036;-62
2021/05/08 13:11:41;;;;;;;8.10;4.70;;;22.50;26.80;;;;;;5062829;28;20869;-62